sensor_id;sensor_type;location;lat;lon;timestamp;P1;durP1;ratioP1;P2;durP2;ratioP2
21036;SDS011;10677;50.942;4.028;2023-08-24T00:01:36;13.75;;;5.88;;
21036;SDS011;10677;50.942;4.028;2023-08-24T00:04:01;10.52;;;5.85;;
21036;SDS011;10677;50.942;4.028;2023-08-24T00:06:27;13.50;;;6.50;;
21036;SDS011;10677;50.942;4.028;2023-08-24T00:08:53;9.93;;;5.35;;
21036;SDS011;10677;50.942;4.028;2023-08-24T00:11:18;14.38;;;6.25;;
21036;SDS011;10677;50.942;4.028;2023-08-24T00:13:44;8.32;;;5.47;;
21036;SDS011;10677;50.942;4.028;2023-08-24T00:16:19;13.38;;;6.00;;
21036;SDS011;10677;50.942;4.028;2023-08-24T00:18:45;11.90;;;5.90;;
21036;SDS011;10677;50.942;4.028;2023-08-24T00:21:14;11.55;;;5.47;;
21036;SDS011;10677;50.942;4.028;2023-08-24T00:23:42;10.65;;;5.60;;
21036;SDS011;10677;50.942;4.028;2023-08-24T00:26:08;11.10;;;4.80;;
21036;SDS011;10677;50.942;4.028;2023-08-24T00:28:34;10.30;;;5.82;;
21036;SDS011;10677;50.942;4.028;2023-08-24T00:31:00;11.30;;;5.90;;
21036;SDS011;10677;50.942;4.028;2023-08-24T00:33:26;11.98;;;6.53;;
21036;SDS011;10677;50.942;4.028;2023-08-24T00:35:51;10.68;;;5.25;;
21036;SDS011;10677;50.942;4.028;2023-08-24T00:38:17;11.20;;;5.68;;
21036;SDS011;10677;50.942;4.028;2023-08-24T00:40:42;12.00;;;5.63;;
21036;SDS011;10677;50.942;4.028;2023-08-24T00:43:09;9.23;;;5.22;;
21036;SDS011;10677;50.942;4.028;2023-08-24T00:45:34;11.40;;;5.70;;
21036;SDS011;10677;50.942;4.028;2023-08-24T00:48:01;13.85;;;5.97;;
21036;SDS011;10677;50.942;4.028;2023-08-24T00:50:27;8.45;;;5.00;;
21036;SDS011;10677;50.942;4.028;2023-08-24T00:52:53;10.32;;;5.90;;
21036;SDS011;10677;50.942;4.028;2023-08-24T00:55:19;11.55;;;5.38;;
21036;SDS011;10677;50.942;4.028;2023-08-24T00:57:46;8.98;;;5.00;;
21036;SDS011;10677;50.942;4.028;2023-08-24T01:00:13;12.35;;;5.90;;
21036;SDS011;10677;50.942;4.028;2023-08-24T01:02:39;11.32;;;5.32;;
21036;SDS011;10677;50.942;4.028;2023-08-24T01:05:05;10.13;;;5.70;;
21036;SDS011;10677;50.942;4.028;2023-08-24T01:07:32;10.23;;;5.90;;
21036;SDS011;10677;50.942;4.028;2023-08-24T01:09:59;11.77;;;6.25;;
21036;SDS011;10677;50.942;4.028;2023-08-24T01:15:28;7.85;;;5.35;;
21036;SDS011;10677;50.942;4.028;2023-08-24T01:18:08;10.38;;;5.22;;
21036;SDS011;10677;50.942;4.028;2023-08-24T01:20:38;10.88;;;5.72;;
21036;SDS011;10677;50.942;4.028;2023-08-24T01:25:53;12.45;;;5.30;;
21036;SDS011;10677;50.942;4.028;2023-08-24T01:28:39;10.60;;;5.63;;
21036;SDS011;10677;50.942;4.028;2023-08-24T01:31:06;14.90;;;6.07;;
21036;SDS011;10677;50.942;4.028;2023-08-24T01:33:32;9.32;;;5.95;;
21036;SDS011;10677;50.942;4.028;2023-08-24T01:35:58;10.63;;;5.53;;
21036;SDS011;10677;50.942;4.028;2023-08-24T01:38:24;9.10;;;5.13;;
21036;SDS011;10677;50.942;4.028;2023-08-24T01:41:08;9.63;;;6.18;;
21036;SDS011;10677;50.942;4.028;2023-08-24T01:43:41;13.63;;;6.38;;
21036;SDS011;10677;50.942;4.028;2023-08-24T01:46:14;12.77;;;6.35;;
21036;SDS011;10677;50.942;4.028;2023-08-24T01:48:41;10.82;;;5.95;;
21036;SDS011;10677;50.942;4.028;2023-08-24T01:51:09;15.05;;;6.40;;
21036;SDS011;10677;50.942;4.028;2023-08-24T01:53:35;13.57;;;7.13;;
21036;SDS011;10677;50.942;4.028;2023-08-24T01:56:09;15.88;;;7.00;;
21036;SDS011;10677;50.942;4.028;2023-08-24T01:58:35;15.25;;;7.97;;
21036;SDS011;10677;50.942;4.028;2023-08-24T02:01:01;18.73;;;7.82;;
21036;SDS011;10677;50.942;4.028;2023-08-24T02:03:27;11.23;;;7.40;;
21036;SDS011;10677;50.942;4.028;2023-08-24T02:05:52;15.13;;;7.32;;
21036;SDS011;10677;50.942;4.028;2023-08-24T02:08:18;13.55;;;7.00;;
21036;SDS011;10677;50.942;4.028;2023-08-24T02:10:43;12.50;;;7.43;;
21036;SDS011;10677;50.942;4.028;2023-08-24T02:13:09;12.80;;;7.85;;
21036;SDS011;10677;50.942;4.028;2023-08-24T02:15:35;11.07;;;7.57;;
21036;SDS011;10677;50.942;4.028;2023-08-24T02:18:02;11.85;;;7.85;;
21036;SDS011;10677;50.942;4.028;2023-08-24T02:20:28;12.65;;;7.85;;
21036;SDS011;10677;50.942;4.028;2023-08-24T02:22:54;12.65;;;8.10;;
21036;SDS011;10677;50.942;4.028;2023-08-24T02:25:19;13.02;;;8.15;;
21036;SDS011;10677;50.942;4.028;2023-08-24T02:27:45;12.82;;;8.27;;
21036;SDS011;10677;50.942;4.028;2023-08-24T02:30:11;13.32;;;8.18;;
21036;SDS011;10677;50.942;4.028;2023-08-24T02:32:37;11.00;;;8.02;;
21036;SDS011;10677;50.942;4.028;2023-08-24T02:35:03;14.60;;;8.70;;
21036;SDS011;10677;50.942;4.028;2023-08-24T02:37:29;14.35;;;8.07;;
21036;SDS011;10677;50.942;4.028;2023-08-24T02:39:54;11.88;;;7.55;;
21036;SDS011;10677;50.942;4.028;2023-08-24T02:42:20;12.82;;;8.45;;
21036;SDS011;10677;50.942;4.028;2023-08-24T02:44:45;11.00;;;8.35;;
21036;SDS011;10677;50.942;4.028;2023-08-24T02:47:11;11.50;;;7.95;;
21036;SDS011;10677;50.942;4.028;2023-08-24T02:49:37;12.63;;;8.65;;
21036;SDS011;10677;50.942;4.028;2023-08-24T02:52:02;11.18;;;8.25;;
21036;SDS011;10677;50.942;4.028;2023-08-24T02:54:28;16.48;;;8.20;;
21036;SDS011;10677;50.942;4.028;2023-08-24T02:56:54;11.48;;;7.70;;
21036;SDS011;10677;50.942;4.028;2023-08-24T02:59:19;12.10;;;7.55;;
21036;SDS011;10677;50.942;4.028;2023-08-24T03:01:45;11.00;;;7.95;;
21036;SDS011;10677;50.942;4.028;2023-08-24T03:04:11;12.80;;;8.63;;
21036;SDS011;10677;50.942;4.028;2023-08-24T03:06:37;9.65;;;7.20;;
21036;SDS011;10677;50.942;4.028;2023-08-24T03:09:02;15.18;;;8.73;;
21036;SDS011;10677;50.942;4.028;2023-08-24T03:11:30;13.75;;;8.43;;
21036;SDS011;10677;50.942;4.028;2023-08-24T03:13:56;11.93;;;8.05;;
21036;SDS011;10677;50.942;4.028;2023-08-24T03:16:22;11.95;;;8.43;;
21036;SDS011;10677;50.942;4.028;2023-08-24T03:18:48;14.50;;;8.55;;
21036;SDS011;10677;50.942;4.028;2023-08-24T03:21:14;15.48;;;9.10;;
21036;SDS011;10677;50.942;4.028;2023-08-24T03:23:40;18.98;;;10.13;;
21036;SDS011;10677;50.942;4.028;2023-08-24T03:26:05;22.58;;;10.23;;
21036;SDS011;10677;50.942;4.028;2023-08-24T03:28:31;20.25;;;9.38;;
21036;SDS011;10677;50.942;4.028;2023-08-24T03:30:57;17.08;;;9.02;;
21036;SDS011;10677;50.942;4.028;2023-08-24T03:33:22;12.63;;;8.40;;
21036;SDS011;10677;50.942;4.028;2023-08-24T03:35:48;15.77;;;9.43;;
21036;SDS011;10677;50.942;4.028;2023-08-24T03:38:14;11.25;;;8.00;;
21036;SDS011;10677;50.942;4.028;2023-08-24T03:40:40;16.10;;;8.35;;
21036;SDS011;10677;50.942;4.028;2023-08-24T03:43:06;13.80;;;8.00;;
21036;SDS011;10677;50.942;4.028;2023-08-24T03:45:31;14.95;;;8.88;;
21036;SDS011;10677;50.942;4.028;2023-08-24T03:47:57;13.00;;;8.30;;
21036;SDS011;10677;50.942;4.028;2023-08-24T03:50:23;15.25;;;8.55;;
21036;SDS011;10677;50.942;4.028;2023-08-24T03:52:51;14.10;;;8.73;;
21036;SDS011;10677;50.942;4.028;2023-08-24T03:55:19;14.13;;;8.48;;
21036;SDS011;10677;50.942;4.028;2023-08-24T03:57:45;14.05;;;8.57;;
21036;SDS011;10677;50.942;4.028;2023-08-24T04:00:11;14.55;;;8.68;;
21036;SDS011;10677;50.942;4.028;2023-08-24T04:02:37;12.90;;;8.73;;
21036;SDS011;10677;50.942;4.028;2023-08-24T04:05:03;13.90;;;8.82;;
21036;SDS011;10677;50.942;4.028;2023-08-24T04:07:29;13.98;;;8.43;;
21036;SDS011;10677;50.942;4.028;2023-08-24T04:09:56;13.52;;;8.65;;
21036;SDS011;10677;50.942;4.028;2023-08-24T04:12:22;10.90;;;7.88;;
21036;SDS011;10677;50.942;4.028;2023-08-24T04:14:47;14.25;;;8.07;;
21036;SDS011;10677;50.942;4.028;2023-08-24T04:17:14;16.08;;;8.77;;
21036;SDS011;10677;50.942;4.028;2023-08-24T04:19:40;12.02;;;7.63;;
21036;SDS011;10677;50.942;4.028;2023-08-24T04:22:06;15.38;;;8.30;;
21036;SDS011;10677;50.942;4.028;2023-08-24T04:24:31;12.82;;;7.43;;
21036;SDS011;10677;50.942;4.028;2023-08-24T04:26:57;11.50;;;8.10;;
21036;SDS011;10677;50.942;4.028;2023-08-24T04:29:23;14.10;;;8.40;;
21036;SDS011;10677;50.942;4.028;2023-08-24T04:31:48;13.75;;;8.10;;
21036;SDS011;10677;50.942;4.028;2023-08-24T04:34:14;11.30;;;7.97;;
21036;SDS011;10677;50.942;4.028;2023-08-24T04:36:40;12.23;;;8.73;;
21036;SDS011;10677;50.942;4.028;2023-08-24T04:39:05;14.43;;;8.93;;
21036;SDS011;10677;50.942;4.028;2023-08-24T04:41:31;18.08;;;9.27;;
21036;SDS011;10677;50.942;4.028;2023-08-24T04:43:57;14.88;;;9.18;;
21036;SDS011;10677;50.942;4.028;2023-08-24T04:46:22;17.65;;;9.30;;
21036;SDS011;10677;50.942;4.028;2023-08-24T04:48:48;14.18;;;9.68;;
21036;SDS011;10677;50.942;4.028;2023-08-24T04:51:14;17.92;;;10.32;;
21036;SDS011;10677;50.942;4.028;2023-08-24T04:53:40;16.67;;;10.60;;
21036;SDS011;10677;50.942;4.028;2023-08-24T04:56:05;14.52;;;10.70;;
21036;SDS011;10677;50.942;4.028;2023-08-24T04:58:32;13.65;;;10.00;;
21036;SDS011;10677;50.942;4.028;2023-08-24T05:00:58;17.95;;;10.32;;
21036;SDS011;10677;50.942;4.028;2023-08-24T05:03:24;16.90;;;11.77;;
21036;SDS011;10677;50.942;4.028;2023-08-24T05:05:49;17.00;;;10.25;;
21036;SDS011;10677;50.942;4.028;2023-08-24T05:08:16;17.17;;;10.23;;
21036;SDS011;10677;50.942;4.028;2023-08-24T05:10:43;17.42;;;10.52;;
21036;SDS011;10677;50.942;4.028;2023-08-24T05:13:08;16.75;;;10.85;;
21036;SDS011;10677;50.942;4.028;2023-08-24T05:15:34;20.98;;;12.02;;
21036;SDS011;10677;50.942;4.028;2023-08-24T05:18:01;26.00;;;12.10;;
21036;SDS011;10677;50.942;4.028;2023-08-24T05:20:27;20.02;;;10.73;;
21036;SDS011;10677;50.942;4.028;2023-08-24T05:22:53;18.00;;;11.52;;
21036;SDS011;10677;50.942;4.028;2023-08-24T05:25:20;17.45;;;11.20;;
21036;SDS011;10677;50.942;4.028;2023-08-24T05:27:46;20.48;;;11.20;;
21036;SDS011;10677;50.942;4.028;2023-08-24T05:30:12;21.02;;;10.73;;
21036;SDS011;10677;50.942;4.028;2023-08-24T05:32:38;18.30;;;10.95;;
21036;SDS011;10677;50.942;4.028;2023-08-24T05:35:07;16.65;;;10.85;;
21036;SDS011;10677;50.942;4.028;2023-08-24T05:37:35;16.20;;;11.10;;
21036;SDS011;10677;50.942;4.028;2023-08-24T05:40:00;18.67;;;11.48;;
21036;SDS011;10677;50.942;4.028;2023-08-24T05:42:28;18.80;;;12.18;;
21036;SDS011;10677;50.942;4.028;2023-08-24T05:44:53;16.48;;;11.10;;
21036;SDS011;10677;50.942;4.028;2023-08-24T05:47:19;16.83;;;11.02;;
21036;SDS011;10677;50.942;4.028;2023-08-24T05:49:45;21.15;;;10.80;;
21036;SDS011;10677;50.942;4.028;2023-08-24T05:52:10;13.77;;;11.25;;
21036;SDS011;10677;50.942;4.028;2023-08-24T05:54:36;15.82;;;11.38;;
21036;SDS011;10677;50.942;4.028;2023-08-24T05:57:02;17.63;;;10.98;;
21036;SDS011;10677;50.942;4.028;2023-08-24T05:59:29;20.10;;;12.00;;
21036;SDS011;10677;50.942;4.028;2023-08-24T06:01:55;16.30;;;12.00;;
21036;SDS011;10677;50.942;4.028;2023-08-24T06:04:21;17.35;;;11.65;;
21036;SDS011;10677;50.942;4.028;2023-08-24T06:06:46;15.95;;;11.63;;
21036;SDS011;10677;50.942;4.028;2023-08-24T06:09:12;20.52;;;12.18;;
21036;SDS011;10677;50.942;4.028;2023-08-24T06:11:40;15.57;;;10.90;;
21036;SDS011;10677;50.942;4.028;2023-08-24T06:14:05;16.88;;;11.48;;
21036;SDS011;10677;50.942;4.028;2023-08-24T06:16:31;16.25;;;11.30;;
21036;SDS011;10677;50.942;4.028;2023-08-24T06:18:57;13.68;;;10.23;;
21036;SDS011;10677;50.942;4.028;2023-08-24T06:21:23;21.63;;;11.10;;
21036;SDS011;10677;50.942;4.028;2023-08-24T06:23:49;13.52;;;10.02;;
21036;SDS011;10677;50.942;4.028;2023-08-24T06:26:14;13.15;;;10.00;;
21036;SDS011;10677;50.942;4.028;2023-08-24T06:28:40;19.45;;;11.05;;
21036;SDS011;10677;50.942;4.028;2023-08-24T06:31:06;19.67;;;10.60;;
21036;SDS011;10677;50.942;4.028;2023-08-24T06:33:35;15.63;;;10.23;;
21036;SDS011;10677;50.942;4.028;2023-08-24T06:36:02;18.88;;;11.32;;
21036;SDS011;10677;50.942;4.028;2023-08-24T06:38:30;14.23;;;10.05;;
21036;SDS011;10677;50.942;4.028;2023-08-24T06:40:58;14.93;;;10.57;;
21036;SDS011;10677;50.942;4.028;2023-08-24T06:43:27;14.85;;;9.60;;
21036;SDS011;10677;50.942;4.028;2023-08-24T06:45:56;13.60;;;9.73;;
21036;SDS011;10677;50.942;4.028;2023-08-24T06:48:22;13.43;;;10.35;;
21036;SDS011;10677;50.942;4.028;2023-08-24T06:50:48;12.63;;;9.75;;
21036;SDS011;10677;50.942;4.028;2023-08-24T06:53:14;13.27;;;9.48;;
21036;SDS011;10677;50.942;4.028;2023-08-24T06:55:40;14.02;;;9.55;;
21036;SDS011;10677;50.942;4.028;2023-08-24T06:58:05;16.67;;;10.25;;
21036;SDS011;10677;50.942;4.028;2023-08-24T07:00:31;17.13;;;9.95;;
21036;SDS011;10677;50.942;4.028;2023-08-24T07:02:58;16.52;;;9.95;;
21036;SDS011;10677;50.942;4.028;2023-08-24T07:05:24;17.42;;;9.57;;
21036;SDS011;10677;50.942;4.028;2023-08-24T07:07:50;15.88;;;10.40;;
21036;SDS011;10677;50.942;4.028;2023-08-24T07:10:17;13.10;;;9.40;;
21036;SDS011;10677;50.942;4.028;2023-08-24T07:12:43;12.95;;;9.07;;
21036;SDS011;10677;50.942;4.028;2023-08-24T07:15:10;12.73;;;9.30;;
21036;SDS011;10677;50.942;4.028;2023-08-24T07:17:37;17.50;;;9.43;;
21036;SDS011;10677;50.942;4.028;2023-08-24T07:20:04;13.02;;;9.25;;
21036;SDS011;10677;50.942;4.028;2023-08-24T07:22:31;16.10;;;11.10;;
21036;SDS011;10677;50.942;4.028;2023-08-24T07:24:57;13.43;;;9.43;;
21036;SDS011;10677;50.942;4.028;2023-08-24T07:27:23;12.43;;;9.25;;
21036;SDS011;10677;50.942;4.028;2023-08-24T07:29:48;19.48;;;9.20;;
21036;SDS011;10677;50.942;4.028;2023-08-24T07:32:14;13.68;;;9.52;;
21036;SDS011;10677;50.942;4.028;2023-08-24T07:34:40;16.95;;;10.82;;
21036;SDS011;10677;50.942;4.028;2023-08-24T07:37:05;17.63;;;11.93;;
21036;SDS011;10677;50.942;4.028;2023-08-24T07:39:31;17.73;;;9.75;;
21036;SDS011;10677;50.942;4.028;2023-08-24T07:41:57;17.48;;;10.52;;
21036;SDS011;10677;50.942;4.028;2023-08-24T07:44:23;16.92;;;10.00;;
21036;SDS011;10677;50.942;4.028;2023-08-24T07:46:48;13.25;;;8.85;;
21036;SDS011;10677;50.942;4.028;2023-08-24T07:49:14;16.90;;;10.30;;
21036;SDS011;10677;50.942;4.028;2023-08-24T07:51:40;16.85;;;9.18;;
21036;SDS011;10677;50.942;4.028;2023-08-24T07:54:07;16.35;;;9.30;;
21036;SDS011;10677;50.942;4.028;2023-08-24T07:56:33;15.77;;;13.43;;
21036;SDS011;10677;50.942;4.028;2023-08-24T07:58:59;25.48;;;18.42;;
21036;SDS011;10677;50.942;4.028;2023-08-24T08:01:25;18.63;;;12.43;;
21036;SDS011;10677;50.942;4.028;2023-08-24T08:03:51;15.93;;;10.43;;
21036;SDS011;10677;50.942;4.028;2023-08-24T08:06:16;14.18;;;9.25;;
21036;SDS011;10677;50.942;4.028;2023-08-24T08:08:42;16.38;;;9.27;;
21036;SDS011;10677;50.942;4.028;2023-08-24T08:11:09;17.40;;;9.40;;
21036;SDS011;10677;50.942;4.028;2023-08-24T08:13:35;13.57;;;9.98;;
21036;SDS011;10677;50.942;4.028;2023-08-24T08:16:04;13.98;;;9.25;;
21036;SDS011;10677;50.942;4.028;2023-08-24T08:18:34;16.13;;;9.57;;
21036;SDS011;10677;50.942;4.028;2023-08-24T08:21:00;13.50;;;9.57;;
21036;SDS011;10677;50.942;4.028;2023-08-24T08:23:27;16.17;;;9.68;;
21036;SDS011;10677;50.942;4.028;2023-08-24T08:25:54;16.15;;;9.85;;
21036;SDS011;10677;50.942;4.028;2023-08-24T08:28:20;15.88;;;9.75;;
21036;SDS011;10677;50.942;4.028;2023-08-24T08:30:47;15.77;;;10.38;;
21036;SDS011;10677;50.942;4.028;2023-08-24T08:33:14;14.50;;;11.38;;
21036;SDS011;10677;50.942;4.028;2023-08-24T08:35:40;20.30;;;12.90;;
21036;SDS011;10677;50.942;4.028;2023-08-24T08:38:06;23.77;;;14.90;;
21036;SDS011;10677;50.942;4.028;2023-08-24T08:40:36;19.60;;;11.88;;
21036;SDS011;10677;50.942;4.028;2023-08-24T08:43:02;14.60;;;10.10;;
21036;SDS011;10677;50.942;4.028;2023-08-24T08:45:28;15.73;;;9.40;;
21036;SDS011;10677;50.942;4.028;2023-08-24T08:47:58;16.30;;;9.55;;
21036;SDS011;10677;50.942;4.028;2023-08-24T08:50:25;18.05;;;9.73;;
21036;SDS011;10677;50.942;4.028;2023-08-24T08:52:50;18.30;;;9.98;;
21036;SDS011;10677;50.942;4.028;2023-08-24T08:55:16;16.67;;;8.48;;
21036;SDS011;10677;50.942;4.028;2023-08-24T08:57:43;15.35;;;9.35;;
21036;SDS011;10677;50.942;4.028;2023-08-24T09:00:12;14.60;;;9.40;;
21036;SDS011;10677;50.942;4.028;2023-08-24T09:02:39;14.98;;;9.25;;
21036;SDS011;10677;50.942;4.028;2023-08-24T09:05:09;13.88;;;9.43;;
21036;SDS011;10677;50.942;4.028;2023-08-24T09:07:36;18.27;;;9.40;;
21036;SDS011;10677;50.942;4.028;2023-08-24T09:10:04;17.92;;;10.30;;
21036;SDS011;10677;50.942;4.028;2023-08-24T09:12:31;19.35;;;10.77;;
21036;SDS011;10677;50.942;4.028;2023-08-24T09:15:02;20.42;;;10.90;;
21036;SDS011;10677;50.942;4.028;2023-08-24T09:17:32;13.90;;;9.77;;
21036;SDS011;10677;50.942;4.028;2023-08-24T09:19:59;17.38;;;10.50;;
21036;SDS011;10677;50.942;4.028;2023-08-24T09:22:26;22.58;;;11.30;;
21036;SDS011;10677;50.942;4.028;2023-08-24T09:24:51;17.98;;;10.80;;
21036;SDS011;10677;50.942;4.028;2023-08-24T09:27:20;20.80;;;12.50;;
21036;SDS011;10677;50.942;4.028;2023-08-24T09:29:47;18.15;;;11.10;;
21036;SDS011;10677;50.942;4.028;2023-08-24T09:32:23;17.23;;;9.50;;
21036;SDS011;10677;50.942;4.028;2023-08-24T09:34:52;15.30;;;8.60;;
21036;SDS011;10677;50.942;4.028;2023-08-24T09:37:17;11.90;;;8.23;;
21036;SDS011;10677;50.942;4.028;2023-08-24T09:39:44;12.45;;;7.82;;
21036;SDS011;10677;50.942;4.028;2023-08-24T09:42:11;16.38;;;8.10;;
21036;SDS011;10677;50.942;4.028;2023-08-24T09:44:37;19.83;;;7.47;;
21036;SDS011;10677;50.942;4.028;2023-08-24T09:47:08;13.52;;;6.80;;
21036;SDS011;10677;50.942;4.028;2023-08-24T09:49:35;10.45;;;6.20;;
21036;SDS011;10677;50.942;4.028;2023-08-24T09:52:01;11.05;;;5.63;;
21036;SDS011;10677;50.942;4.028;2023-08-24T09:54:31;7.72;;;5.07;;
21036;SDS011;10677;50.942;4.028;2023-08-24T09:56:59;8.50;;;5.22;;
21036;SDS011;10677;50.942;4.028;2023-08-24T09:59:26;10.43;;;5.18;;
21036;SDS011;10677;50.942;4.028;2023-08-24T10:01:53;7.22;;;4.68;;
21036;SDS011;10677;50.942;4.028;2023-08-24T10:04:22;11.52;;;5.10;;
21036;SDS011;10677;50.942;4.028;2023-08-24T10:07:05;7.10;;;4.43;;
21036;SDS011;10677;50.942;4.028;2023-08-24T10:09:39;11.93;;;5.65;;
21036;SDS011;10677;50.942;4.028;2023-08-24T10:12:28;11.80;;;5.85;;
21036;SDS011;10677;50.942;4.028;2023-08-24T10:14:59;9.98;;;5.00;;
21036;SDS011;10677;50.942;4.028;2023-08-24T10:17:45;7.40;;;4.82;;
21036;SDS011;10677;50.942;4.028;2023-08-24T10:20:12;40.55;;;25.83;;
21036;SDS011;10677;50.942;4.028;2023-08-24T10:22:39;8.55;;;4.82;;
21036;SDS011;10677;50.942;4.028;2023-08-24T10:25:06;8.93;;;5.07;;
21036;SDS011;10677;50.942;4.028;2023-08-24T10:27:33;7.20;;;5.10;;
21036;SDS011;10677;50.942;4.028;2023-08-24T10:30:08;10.00;;;5.32;;
21036;SDS011;10677;50.942;4.028;2023-08-24T10:32:37;9.05;;;4.65;;
21036;SDS011;10677;50.942;4.028;2023-08-24T10:35:05;9.07;;;5.18;;
21036;SDS011;10677;50.942;4.028;2023-08-24T10:37:32;10.55;;;4.80;;
21036;SDS011;10677;50.942;4.028;2023-08-24T10:39:59;8.27;;;4.68;;
21036;SDS011;10677;50.942;4.028;2023-08-24T10:42:26;12.63;;;4.40;;
21036;SDS011;10677;50.942;4.028;2023-08-24T10:44:51;9.35;;;3.95;;
21036;SDS011;10677;50.942;4.028;2023-08-24T10:47:19;8.73;;;4.03;;
21036;SDS011;10677;50.942;4.028;2023-08-24T10:50:07;11.05;;;4.22;;
21036;SDS011;10677;50.942;4.028;2023-08-24T10:52:32;12.70;;;4.22;;
21036;SDS011;10677;50.942;4.028;2023-08-24T10:55:01;8.60;;;3.80;;
21036;SDS011;10677;50.942;4.028;2023-08-24T10:57:35;7.05;;;3.60;;
21036;SDS011;10677;50.942;4.028;2023-08-24T11:02:38;9.00;;;4.38;;
21036;SDS011;10677;50.942;4.028;2023-08-24T11:07:48;11.05;;;4.38;;
21036;SDS011;10677;50.942;4.028;2023-08-24T11:10:15;10.30;;;4.20;;
21036;SDS011;10677;50.942;4.028;2023-08-24T11:13:16;8.68;;;3.70;;
21036;SDS011;10677;50.942;4.028;2023-08-24T11:15:38;8.50;;;3.72;;
21036;SDS011;10677;50.942;4.028;2023-08-24T11:18:14;7.45;;;3.65;;
21036;SDS011;10677;50.942;4.028;2023-08-24T11:20:45;6.32;;;4.00;;
21036;SDS011;10677;50.942;4.028;2023-08-24T11:23:12;7.57;;;3.90;;
21036;SDS011;10677;50.942;4.028;2023-08-24T11:25:38;6.75;;;4.05;;
21036;SDS011;10677;50.942;4.028;2023-08-24T11:28:04;6.88;;;3.88;;
21036;SDS011;10677;50.942;4.028;2023-08-24T11:30:30;7.97;;;3.63;;
21036;SDS011;10677;50.942;4.028;2023-08-24T11:32:57;8.25;;;4.07;;
21036;SDS011;10677;50.942;4.028;2023-08-24T11:35:24;10.43;;;4.55;;
21036;SDS011;10677;50.942;4.028;2023-08-24T11:37:54;9.95;;;4.28;;
21036;SDS011;10677;50.942;4.028;2023-08-24T11:40:21;7.32;;;4.00;;
21036;SDS011;10677;50.942;4.028;2023-08-24T11:42:55;8.15;;;3.65;;
21036;SDS011;10677;50.942;4.028;2023-08-24T11:45:21;8.77;;;4.63;;
21036;SDS011;10677;50.942;4.028;2023-08-24T11:47:48;7.82;;;4.03;;
21036;SDS011;10677;50.942;4.028;2023-08-24T11:50:14;7.50;;;4.20;;
21036;SDS011;10677;50.942;4.028;2023-08-24T11:52:41;8.40;;;4.32;;
21036;SDS011;10677;50.942;4.028;2023-08-24T11:55:07;8.05;;;4.68;;
21036;SDS011;10677;50.942;4.028;2023-08-24T11:57:34;10.48;;;4.45;;
21036;SDS011;10677;50.942;4.028;2023-08-24T12:00:00;7.40;;;4.15;;
21036;SDS011;10677;50.942;4.028;2023-08-24T12:02:27;7.00;;;4.00;;
21036;SDS011;10677;50.942;4.028;2023-08-24T12:04:53;8.73;;;4.40;;
21036;SDS011;10677;50.942;4.028;2023-08-24T12:07:20;6.38;;;4.75;;
21036;SDS011;10677;50.942;4.028;2023-08-24T12:09:47;7.28;;;4.72;;
21036;SDS011;10677;50.942;4.028;2023-08-24T12:12:17;7.43;;;4.55;;
21036;SDS011;10677;50.942;4.028;2023-08-24T12:14:46;9.68;;;4.72;;
21036;SDS011;10677;50.942;4.028;2023-08-24T12:17:13;5.97;;;4.25;;
21036;SDS011;10677;50.942;4.028;2023-08-24T12:19:43;7.00;;;4.70;;
21036;SDS011;10677;50.942;4.028;2023-08-24T12:22:12;10.30;;;4.90;;
21036;SDS011;10677;50.942;4.028;2023-08-24T12:24:46;9.00;;;4.93;;
21036;SDS011;10677;50.942;4.028;2023-08-24T12:27:19;8.25;;;4.85;;
21036;SDS011;10677;50.942;4.028;2023-08-24T12:29:48;8.60;;;4.55;;
21036;SDS011;10677;50.942;4.028;2023-08-24T12:32:14;10.77;;;5.03;;
21036;SDS011;10677;50.942;4.028;2023-08-24T12:34:45;8.70;;;4.53;;
21036;SDS011;10677;50.942;4.028;2023-08-24T12:37:11;6.50;;;4.53;;
21036;SDS011;10677;50.942;4.028;2023-08-24T12:39:38;8.98;;;5.00;;
21036;SDS011;10677;50.942;4.028;2023-08-24T12:42:05;7.05;;;5.38;;
21036;SDS011;10677;50.942;4.028;2023-08-24T12:44:32;8.00;;;4.88;;
21036;SDS011;10677;50.942;4.028;2023-08-24T12:47:00;9.95;;;5.25;;
21036;SDS011;10677;50.942;4.028;2023-08-24T12:49:28;8.02;;;5.07;;
21036;SDS011;10677;50.942;4.028;2023-08-24T12:51:54;7.80;;;4.50;;
21036;SDS011;10677;50.942;4.028;2023-08-24T12:54:19;8.85;;;4.63;;
21036;SDS011;10677;50.942;4.028;2023-08-24T12:56:45;9.63;;;4.55;;
21036;SDS011;10677;50.942;4.028;2023-08-24T12:59:10;8.75;;;4.38;;
21036;SDS011;10677;50.942;4.028;2023-08-24T13:01:37;8.50;;;4.00;;
21036;SDS011;10677;50.942;4.028;2023-08-24T13:04:03;5.90;;;3.80;;
21036;SDS011;10677;50.942;4.028;2023-08-24T13:06:29;7.93;;;4.47;;
21036;SDS011;10677;50.942;4.028;2023-08-24T13:08:55;9.02;;;4.22;;
21036;SDS011;10677;50.942;4.028;2023-08-24T13:11:21;6.60;;;3.95;;
21036;SDS011;10677;50.942;4.028;2023-08-24T13:13:47;7.68;;;3.95;;
21036;SDS011;10677;50.942;4.028;2023-08-24T13:16:13;8.10;;;3.70;;
21036;SDS011;10677;50.942;4.028;2023-08-24T13:18:40;7.43;;;3.65;;
21036;SDS011;10677;50.942;4.028;2023-08-24T13:21:05;6.38;;;3.40;;
21036;SDS011;10677;50.942;4.028;2023-08-24T13:23:32;5.32;;;3.00;;
21036;SDS011;10677;50.942;4.028;2023-08-24T13:25:58;4.70;;;2.53;;
21036;SDS011;10677;50.942;4.028;2023-08-24T13:28:25;7.78;;;3.30;;
21036;SDS011;10677;50.942;4.028;2023-08-24T13:30:50;8.45;;;3.00;;
21036;SDS011;10677;50.942;4.028;2023-08-24T13:33:16;5.47;;;2.90;;
21036;SDS011;10677;50.942;4.028;2023-08-24T13:35:43;7.85;;;2.80;;
21036;SDS011;10677;50.942;4.028;2023-08-24T13:38:09;10.85;;;3.03;;
21036;SDS011;10677;50.942;4.028;2023-08-24T13:40:34;6.68;;;2.55;;
21036;SDS011;10677;50.942;4.028;2023-08-24T13:43:00;10.43;;;4.35;;
21036;SDS011;10677;50.942;4.028;2023-08-24T13:45:26;29.75;;;13.77;;
21036;SDS011;10677;50.942;4.028;2023-08-24T13:47:51;12.77;;;5.85;;
21036;SDS011;10677;50.942;4.028;2023-08-24T13:50:17;10.13;;;3.95;;
21036;SDS011;10677;50.942;4.028;2023-08-24T13:52:43;6.32;;;2.97;;
21036;SDS011;10677;50.942;4.028;2023-08-24T13:55:09;7.22;;;2.47;;
21036;SDS011;10677;50.942;4.028;2023-08-24T13:57:35;5.43;;;2.35;;
21036;SDS011;10677;50.942;4.028;2023-08-24T14:00:01;6.53;;;2.30;;
21036;SDS011;10677;50.942;4.028;2023-08-24T14:02:29;5.20;;;2.30;;
21036;SDS011;10677;50.942;4.028;2023-08-24T14:04:54;6.82;;;2.75;;
21036;SDS011;10677;50.942;4.028;2023-08-24T14:07:20;9.00;;;2.40;;
21036;SDS011;10677;50.942;4.028;2023-08-24T14:09:46;5.45;;;2.15;;
21036;SDS011;10677;50.942;4.028;2023-08-24T14:12:11;7.18;;;2.65;;
21036;SDS011;10677;50.942;4.028;2023-08-24T14:14:37;10.00;;;2.38;;
21036;SDS011;10677;50.942;4.028;2023-08-24T14:17:03;7.53;;;2.22;;
21036;SDS011;10677;50.942;4.028;2023-08-24T14:19:28;7.07;;;2.30;;
21036;SDS011;10677;50.942;4.028;2023-08-24T14:21:55;4.13;;;2.00;;
21036;SDS011;10677;50.942;4.028;2023-08-24T14:24:23;4.47;;;2.17;;
21036;SDS011;10677;50.942;4.028;2023-08-24T14:26:48;6.22;;;1.80;;
21036;SDS011;10677;50.942;4.028;2023-08-24T14:29:14;4.43;;;1.80;;
21036;SDS011;10677;50.942;4.028;2023-08-24T14:31:41;4.78;;;1.83;;
21036;SDS011;10677;50.942;4.028;2023-08-24T14:34:06;4.95;;;2.00;;
21036;SDS011;10677;50.942;4.028;2023-08-24T14:36:32;5.80;;;2.25;;
21036;SDS011;10677;50.942;4.028;2023-08-24T14:38:57;12.05;;;2.70;;
21036;SDS011;10677;50.942;4.028;2023-08-24T14:41:23;3.85;;;2.10;;
21036;SDS011;10677;50.942;4.028;2023-08-24T14:43:49;5.05;;;1.95;;
21036;SDS011;10677;50.942;4.028;2023-08-24T14:46:15;5.18;;;2.05;;